sensor_id;sensor_type;location;lat;lon;timestamp;temperature;humidity
24472;DHT22;12636;50.852;5.676;2023-12-20T00:00:38;7.70;99.90
24472;DHT22;12636;50.852;5.676;2023-12-20T00:03:06;7.60;99.90
24472;DHT22;12636;50.852;5.676;2023-12-20T00:05:33;7.50;99.90
24472;DHT22;12636;50.852;5.676;2023-12-20T00:08:01;7.30;99.90
24472;DHT22;12636;50.852;5.676;2023-12-20T00:10:28;7.10;99.90
24472;DHT22;12636;50.852;5.676;2023-12-20T00:12:55;7.00;99.90
24472;DHT22;12636;50.852;5.676;2023-12-20T00:15:22;6.80;99.90
24472;DHT22;12636;50.852;5.676;2023-12-20T00:17:48;6.60;99.90
24472;DHT22;12636;50.852;5.676;2023-12-20T00:20:17;6.50;99.90
24472;DHT22;12636;50.852;5.676;2023-12-20T00:22:44;6.40;99.90
24472;DHT22;12636;50.852;5.676;2023-12-20T00:25:11;6.30;99.90
24472;DHT22;12636;50.852;5.676;2023-12-20T00:27:38;6.10;99.90
24472;DHT22;12636;50.852;5.676;2023-12-20T00:30:06;6.10;99.90
24472;DHT22;12636;50.852;5.676;2023-12-20T00:32:33;6.10;99.90
24472;DHT22;12636;50.852;5.676;2023-12-20T00:35:00;6.10;99.90
24472;DHT22;12636;50.852;5.676;2023-12-20T00:37:28;6.10;99.90
24472;DHT22;12636;50.852;5.676;2023-12-20T00:39:55;6.10;99.90
24472;DHT22;12636;50.852;5.676;2023-12-20T00:42:22;6.10;99.90
24472;DHT22;12636;50.852;5.676;2023-12-20T00:44:49;6.00;99.90
24472;DHT22;12636;50.852;5.676;2023-12-20T00:47:16;6.00;99.90
24472;DHT22;12636;50.852;5.676;2023-12-20T00:49:43;6.00;99.90
24472;DHT22;12636;50.852;5.676;2023-12-20T00:52:09;6.00;99.90
24472;DHT22;12636;50.852;5.676;2023-12-20T00:54:38;5.90;99.90
24472;DHT22;12636;50.852;5.676;2023-12-20T00:57:05;5.70;99.90
24472;DHT22;12636;50.852;5.676;2023-12-20T00:59:32;5.80;99.90
24472;DHT22;12636;50.852;5.676;2023-12-20T01:01:59;5.80;99.90
24472;DHT22;12636;50.852;5.676;2023-12-20T01:04:25;5.80;99.90
24472;DHT22;12636;50.852;5.676;2023-12-20T01:06:52;5.80;99.90
24472;DHT22;12636;50.852;5.676;2023-12-20T01:09:18;5.70;99.90
24472;DHT22;12636;50.852;5.676;2023-12-20T01:11:50;5.80;99.90
24472;DHT22;12636;50.852;5.676;2023-12-20T01:14:17;5.80;99.90
24472;DHT22;12636;50.852;5.676;2023-12-20T01:16:45;5.80;99.90
24472;DHT22;12636;50.852;5.676;2023-12-20T01:19:12;5.70;99.90
24472;DHT22;12636;50.852;5.676;2023-12-20T01:21:40;5.70;99.90
24472;DHT22;12636;50.852;5.676;2023-12-20T01:24:07;5.60;99.90
24472;DHT22;12636;50.852;5.676;2023-12-20T01:26:34;5.60;99.90
24472;DHT22;12636;50.852;5.676;2023-12-20T01:29:02;5.60;99.90
24472;DHT22;12636;50.852;5.676;2023-12-20T01:31:29;5.60;99.90
24472;DHT22;12636;50.852;5.676;2023-12-20T01:33:56;5.60;99.90
24472;DHT22;12636;50.852;5.676;2023-12-20T01:36:23;5.60;99.90
24472;DHT22;12636;50.852;5.676;2023-12-20T01:38:50;5.70;99.90
24472;DHT22;12636;50.852;5.676;2023-12-20T01:41:17;5.70;99.90
24472;DHT22;12636;50.852;5.676;2023-12-20T01:43:44;5.60;99.90
24472;DHT22;12636;50.852;5.676;2023-12-20T01:46:12;5.60;99.90
24472;DHT22;12636;50.852;5.676;2023-12-20T01:48:39;5.70;99.90
24472;DHT22;12636;50.852;5.676;2023-12-20T01:51:06;5.70;99.90
24472;DHT22;12636;50.852;5.676;2023-12-20T01:53:32;5.80;99.90
24472;DHT22;12636;50.852;5.676;2023-12-20T01:55:59;5.80;99.90
24472;DHT22;12636;50.852;5.676;2023-12-20T01:58:27;5.80;99.90
24472;DHT22;12636;50.852;5.676;2023-12-20T02:00:54;5.80;99.90
24472;DHT22;12636;50.852;5.676;2023-12-20T02:03:23;5.70;99.90
24472;DHT22;12636;50.852;5.676;2023-12-20T02:05:50;5.60;99.90
24472;DHT22;12636;50.852;5.676;2023-12-20T02:08:17;5.60;99.90
24472;DHT22;12636;50.852;5.676;2023-12-20T02:10:42;5.60;99.90
24472;DHT22;12636;50.852;5.676;2023-12-20T02:13:09;5.60;99.90
24472;DHT22;12636;50.852;5.676;2023-12-20T02:15:36;5.50;99.90
24472;DHT22;12636;50.852;5.676;2023-12-20T02:18:03;5.50;99.90
24472;DHT22;12636;50.852;5.676;2023-12-20T02:20:32;5.60;99.90
24472;DHT22;12636;50.852;5.676;2023-12-20T02:23:00;5.60;99.90
24472;DHT22;12636;50.852;5.676;2023-12-20T02:25:27;5.60;99.90
24472;DHT22;12636;50.852;5.676;2023-12-20T02:27:54;5.60;99.90
24472;DHT22;12636;50.852;5.676;2023-12-20T02:30:21;5.60;99.90
24472;DHT22;12636;50.852;5.676;2023-12-20T02:32:48;5.60;99.90
24472;DHT22;12636;50.852;5.676;2023-12-20T02:35:15;5.60;99.90
24472;DHT22;12636;50.852;5.676;2023-12-20T02:37:42;5.60;99.90
24472;DHT22;12636;50.852;5.676;2023-12-20T02:40:11;5.50;99.90
24472;DHT22;12636;50.852;5.676;2023-12-20T02:42:37;5.40;99.90
24472;DHT22;12636;50.852;5.676;2023-12-20T02:45:05;5.30;99.90
24472;DHT22;12636;50.852;5.676;2023-12-20T02:47:32;5.30;99.90
24472;DHT22;12636;50.852;5.676;2023-12-20T02:49:59;5.30;99.90
24472;DHT22;12636;50.852;5.676;2023-12-20T02:52:27;5.20;99.90
24472;DHT22;12636;50.852;5.676;2023-12-20T02:54:54;5.20;99.90
24472;DHT22;12636;50.852;5.676;2023-12-20T02:57:22;5.10;99.90
24472;DHT22;12636;50.852;5.676;2023-12-20T02:59:49;5.10;99.90
24472;DHT22;12636;50.852;5.676;2023-12-20T03:02:16;5.10;99.90
24472;DHT22;12636;50.852;5.676;2023-12-20T03:04:42;5.20;99.90
24472;DHT22;12636;50.852;5.676;2023-12-20T03:07:09;5.20;99.90
24472;DHT22;12636;50.852;5.676;2023-12-20T03:09:37;5.20;99.90
24472;DHT22;12636;50.852;5.676;2023-12-20T03:12:04;5.20;99.90
24472;DHT22;12636;50.852;5.676;2023-12-20T03:14:32;5.10;99.90
24472;DHT22;12636;50.852;5.676;2023-12-20T03:16:59;5.10;99.90
24472;DHT22;12636;50.852;5.676;2023-12-20T03:19:26;5.00;99.90
24472;DHT22;12636;50.852;5.676;2023-12-20T03:21:54;5.00;99.90
24472;DHT22;12636;50.852;5.676;2023-12-20T03:24:21;5.10;99.90
24472;DHT22;12636;50.852;5.676;2023-12-20T03:26:48;5.10;99.90
24472;DHT22;12636;50.852;5.676;2023-12-20T03:29:15;5.10;99.90
24472;DHT22;12636;50.852;5.676;2023-12-20T03:31:43;5.10;99.90
24472;DHT22;12636;50.852;5.676;2023-12-20T03:34:11;5.10;99.90
24472;DHT22;12636;50.852;5.676;2023-12-20T03:36:38;5.10;99.90
24472;DHT22;12636;50.852;5.676;2023-12-20T03:39:04;5.10;99.90
24472;DHT22;12636;50.852;5.676;2023-12-20T03:41:31;5.20;99.90
24472;DHT22;12636;50.852;5.676;2023-12-20T03:43:58;5.20;99.90
24472;DHT22;12636;50.852;5.676;2023-12-20T03:46:25;5.30;99.90
24472;DHT22;12636;50.852;5.676;2023-12-20T03:48:54;5.40;99.90
24472;DHT22;12636;50.852;5.676;2023-12-20T03:51:21;5.40;99.90
24472;DHT22;12636;50.852;5.676;2023-12-20T03:53:47;5.50;99.90
24472;DHT22;12636;50.852;5.676;2023-12-20T03:56:14;5.50;99.90
24472;DHT22;12636;50.852;5.676;2023-12-20T03:58:41;5.50;99.90
24472;DHT22;12636;50.852;5.676;2023-12-20T04:01:09;5.60;99.90
24472;DHT22;12636;50.852;5.676;2023-12-20T04:03:36;5.60;99.90
24472;DHT22;12636;50.852;5.676;2023-12-20T04:06:05;5.70;99.90
24472;DHT22;12636;50.852;5.676;2023-12-20T04:08:32;5.70;99.90
24472;DHT22;12636;50.852;5.676;2023-12-20T04:10:58;5.70;99.90
24472;DHT22;12636;50.852;5.676;2023-12-20T04:13:25;5.70;99.90
24472;DHT22;12636;50.852;5.676;2023-12-20T04:15:52;5.70;99.90
24472;DHT22;12636;50.852;5.676;2023-12-20T04:18:19;5.80;99.90
24472;DHT22;12636;50.852;5.676;2023-12-20T04:20:46;5.70;99.90
24472;DHT22;12636;50.852;5.676;2023-12-20T04:23:14;5.80;99.90
24472;DHT22;12636;50.852;5.676;2023-12-20T04:25:41;5.80;99.90
24472;DHT22;12636;50.852;5.676;2023-12-20T04:28:08;5.90;99.90
24472;DHT22;12636;50.852;5.676;2023-12-20T04:30:35;5.90;99.90
24472;DHT22;12636;50.852;5.676;2023-12-20T04:33:02;5.90;99.90
24472;DHT22;12636;50.852;5.676;2023-12-20T04:35:29;5.90;99.90
24472;DHT22;12636;50.852;5.676;2023-12-20T04:37:56;6.00;99.90
24472;DHT22;12636;50.852;5.676;2023-12-20T04:40:24;6.00;99.90
24472;DHT22;12636;50.852;5.676;2023-12-20T04:42:51;6.00;99.90
24472;DHT22;12636;50.852;5.676;2023-12-20T04:45:18;6.00;99.90
24472;DHT22;12636;50.852;5.676;2023-12-20T04:47:45;6.00;99.90
24472;DHT22;12636;50.852;5.676;2023-12-20T04:50:12;6.00;99.90
24472;DHT22;12636;50.852;5.676;2023-12-20T04:52:40;6.00;99.90
24472;DHT22;12636;50.852;5.676;2023-12-20T04:55:07;6.00;99.90
24472;DHT22;12636;50.852;5.676;2023-12-20T04:57:35;6.10;99.90
24472;DHT22;12636;50.852;5.676;2023-12-20T05:00:02;6.10;99.90
24472;DHT22;12636;50.852;5.676;2023-12-20T05:02:30;6.00;99.90
24472;DHT22;12636;50.852;5.676;2023-12-20T05:04:57;5.90;99.90
24472;DHT22;12636;50.852;5.676;2023-12-20T05:07:24;5.90;99.90
24472;DHT22;12636;50.852;5.676;2023-12-20T05:09:51;5.90;99.90
24472;DHT22;12636;50.852;5.676;2023-12-20T05:12:18;6.00;99.90
24472;DHT22;12636;50.852;5.676;2023-12-20T05:14:47;6.00;99.90
24472;DHT22;12636;50.852;5.676;2023-12-20T05:17:14;6.00;99.90
24472;DHT22;12636;50.852;5.676;2023-12-20T05:19:40;6.00;99.90
24472;DHT22;12636;50.852;5.676;2023-12-20T05:22:07;5.90;99.90
24472;DHT22;12636;50.852;5.676;2023-12-20T05:24:34;5.90;99.90
24472;DHT22;12636;50.852;5.676;2023-12-20T05:27:01;6.00;99.90
24472;DHT22;12636;50.852;5.676;2023-12-20T05:29:28;6.00;99.90
24472;DHT22;12636;50.852;5.676;2023-12-20T05:31:57;6.00;99.90
24472;DHT22;12636;50.852;5.676;2023-12-20T05:34:24;5.90;99.90
24472;DHT22;12636;50.852;5.676;2023-12-20T05:36:51;5.80;99.90
24472;DHT22;12636;50.852;5.676;2023-12-20T05:39:18;5.90;99.90
24472;DHT22;12636;50.852;5.676;2023-12-20T05:41:45;5.80;99.90
24472;DHT22;12636;50.852;5.676;2023-12-20T05:44:12;5.70;99.90
24472;DHT22;12636;50.852;5.676;2023-12-20T05:46:39;5.60;99.90
24472;DHT22;12636;50.852;5.676;2023-12-20T05:49:07;5.80;99.90
24472;DHT22;12636;50.852;5.676;2023-12-20T05:51:34;5.80;99.90
24472;DHT22;12636;50.852;5.676;2023-12-20T05:54:01;5.80;99.90
24472;DHT22;12636;50.852;5.676;2023-12-20T05:56:28;5.80;99.90
24472;DHT22;12636;50.852;5.676;2023-12-20T05:58:55;5.80;99.90
24472;DHT22;12636;50.852;5.676;2023-12-20T06:01:22;5.70;99.90
24472;DHT22;12636;50.852;5.676;2023-12-20T06:03:49;5.70;99.90
24472;DHT22;12636;50.852;5.676;2023-12-20T06:06:17;5.70;99.90
24472;DHT22;12636;50.852;5.676;2023-12-20T06:08:44;5.80;99.90
24472;DHT22;12636;50.852;5.676;2023-12-20T06:11:11;5.80;99.90
24472;DHT22;12636;50.852;5.676;2023-12-20T06:13:39;5.70;99.90
24472;DHT22;12636;50.852;5.676;2023-12-20T06:16:05;5.50;99.90
24472;DHT22;12636;50.852;5.676;2023-12-20T06:18:32;5.40;99.90
24472;DHT22;12636;50.852;5.676;2023-12-20T06:20:59;5.40;99.90
24472;DHT22;12636;50.852;5.676;2023-12-20T06:23:28;5.20;99.90
24472;DHT22;12636;50.852;5.676;2023-12-20T06:25:54;5.20;99.90
24472;DHT22;12636;50.852;5.676;2023-12-20T06:28:21;5.20;99.90
24472;DHT22;12636;50.852;5.676;2023-12-20T06:30:48;5.20;99.90
24472;DHT22;12636;50.852;5.676;2023-12-20T06:33:15;5.10;99.90
24472;DHT22;12636;50.852;5.676;2023-12-20T06:35:44;5.10;99.90
24472;DHT22;12636;50.852;5.676;2023-12-20T06:38:11;5.10;99.90
24472;DHT22;12636;50.852;5.676;2023-12-20T06:40:39;5.10;99.90
24472;DHT22;12636;50.852;5.676;2023-12-20T06:43:06;5.10;99.90
24472;DHT22;12636;50.852;5.676;2023-12-20T06:45:33;5.00;99.90
24472;DHT22;12636;50.852;5.676;2023-12-20T06:48:00;5.00;99.90
24472;DHT22;12636;50.852;5.676;2023-12-20T06:50:27;5.00;99.90
24472;DHT22;12636;50.852;5.676;2023-12-20T06:52:54;5.20;99.90
24472;DHT22;12636;50.852;5.676;2023-12-20T06:55:21;5.30;99.90
24472;DHT22;12636;50.852;5.676;2023-12-20T06:57:49;5.40;99.90
24472;DHT22;12636;50.852;5.676;2023-12-20T07:00:17;5.40;99.90
24472;DHT22;12636;50.852;5.676;2023-12-20T07:02:45;5.50;99.90
24472;DHT22;12636;50.852;5.676;2023-12-20T07:05:15;5.50;99.90
24472;DHT22;12636;50.852;5.676;2023-12-20T07:07:42;5.50;99.90
24472;DHT22;12636;50.852;5.676;2023-12-20T07:10:09;5.50;99.90
24472;DHT22;12636;50.852;5.676;2023-12-20T07:12:36;5.50;99.90
24472;DHT22;12636;50.852;5.676;2023-12-20T07:15:05;5.50;99.90
24472;DHT22;12636;50.852;5.676;2023-12-20T07:17:32;5.50;99.90
24472;DHT22;12636;50.852;5.676;2023-12-20T07:19:59;5.60;99.90
24472;DHT22;12636;50.852;5.676;2023-12-20T07:22:29;5.60;99.90
24472;DHT22;12636;50.852;5.676;2023-12-20T07:24:57;5.60;99.90
24472;DHT22;12636;50.852;5.676;2023-12-20T07:27:23;5.60;99.90
24472;DHT22;12636;50.852;5.676;2023-12-20T07:29:51;5.50;99.90
24472;DHT22;12636;50.852;5.676;2023-12-20T07:32:19;5.50;99.90
24472;DHT22;12636;50.852;5.676;2023-12-20T07:34:46;5.40;99.90
24472;DHT22;12636;50.852;5.676;2023-12-20T07:37:13;5.30;99.90
24472;DHT22;12636;50.852;5.676;2023-12-20T07:39:40;5.20;99.90
24472;DHT22;12636;50.852;5.676;2023-12-20T07:42:07;5.30;99.90
24472;DHT22;12636;50.852;5.676;2023-12-20T07:44:34;5.30;99.90
24472;DHT22;12636;50.852;5.676;2023-12-20T07:47:01;5.20;99.90
24472;DHT22;12636;50.852;5.676;2023-12-20T07:49:30;5.20;99.90
24472;DHT22;12636;50.852;5.676;2023-12-20T07:51:57;5.20;99.90
24472;DHT22;12636;50.852;5.676;2023-12-20T07:54:24;5.20;99.90
24472;DHT22;12636;50.852;5.676;2023-12-20T07:56:51;5.30;99.90
24472;DHT22;12636;50.852;5.676;2023-12-20T07:59:18;5.30;99.90
24472;DHT22;12636;50.852;5.676;2023-12-20T08:01:44;5.30;99.90
24472;DHT22;12636;50.852;5.676;2023-12-20T08:04:11;5.30;99.90
24472;DHT22;12636;50.852;5.676;2023-12-20T08:06:40;5.50;99.90
24472;DHT22;12636;50.852;5.676;2023-12-20T08:09:07;5.40;99.90
24472;DHT22;12636;50.852;5.676;2023-12-20T08:11:33;5.40;99.90
24472;DHT22;12636;50.852;5.676;2023-12-20T08:14:00;5.30;99.90
24472;DHT22;12636;50.852;5.676;2023-12-20T08:16:27;5.30;99.90
24472;DHT22;12636;50.852;5.676;2023-12-20T08:18:54;5.40;99.90
24472;DHT22;12636;50.852;5.676;2023-12-20T08:21:21;5.30;99.90
24472;DHT22;12636;50.852;5.676;2023-12-20T08:23:50;5.40;99.90
24472;DHT22;12636;50.852;5.676;2023-12-20T08:26:18;5.30;99.90
24472;DHT22;12636;50.852;5.676;2023-12-20T08:28:45;5.30;99.90
24472;DHT22;12636;50.852;5.676;2023-12-20T08:31:13;5.30;99.90
24472;DHT22;12636;50.852;5.676;2023-12-20T08:33:40;5.40;99.90
24472;DHT22;12636;50.852;5.676;2023-12-20T08:36:07;5.70;99.90
24472;DHT22;12636;50.852;5.676;2023-12-20T08:38:34;6.00;99.90
24472;DHT22;12636;50.852;5.676;2023-12-20T08:41:02;6.20;99.90
24472;DHT22;12636;50.852;5.676;2023-12-20T08:43:30;6.30;99.90
24472;DHT22;12636;50.852;5.676;2023-12-20T08:45:57;6.50;99.90
24472;DHT22;12636;50.852;5.676;2023-12-20T08:48:24;6.50;99.90
24472;DHT22;12636;50.852;5.676;2023-12-20T08:50:51;6.50;99.90
24472;DHT22;12636;50.852;5.676;2023-12-20T08:53:18;6.50;99.90
24472;DHT22;12636;50.852;5.676;2023-12-20T08:55:45;6.40;99.90
24472;DHT22;12636;50.852;5.676;2023-12-20T08:58:13;6.40;99.90
24472;DHT22;12636;50.852;5.676;2023-12-20T09:00:41;6.20;99.90
24472;DHT22;12636;50.852;5.676;2023-12-20T09:03:07;6.30;99.90
24472;DHT22;12636;50.852;5.676;2023-12-20T09:05:34;6.20;99.90
24472;DHT22;12636;50.852;5.676;2023-12-20T09:08:01;6.10;99.90
24472;DHT22;12636;50.852;5.676;2023-12-20T09:10:28;6.10;99.90
24472;DHT22;12636;50.852;5.676;2023-12-20T09:12:55;6.10;99.90
24472;DHT22;12636;50.852;5.676;2023-12-20T09:15:24;6.10;99.90
24472;DHT22;12636;50.852;5.676;2023-12-20T09:17:51;6.10;99.90
24472;DHT22;12636;50.852;5.676;2023-12-20T09:20:18;6.10;99.90
24472;DHT22;12636;50.852;5.676;2023-12-20T09:22:45;6.10;99.90
24472;DHT22;12636;50.852;5.676;2023-12-20T09:25:12;6.10;99.90
24472;DHT22;12636;50.852;5.676;2023-12-20T09:27:41;6.10;99.90
24472;DHT22;12636;50.852;5.676;2023-12-20T09:30:08;6.00;99.90
24472;DHT22;12636;50.852;5.676;2023-12-20T09:32:36;5.90;99.90
24472;DHT22;12636;50.852;5.676;2023-12-20T09:35:04;6.40;99.90
24472;DHT22;12636;50.852;5.676;2023-12-20T09:37:32;7.10;99.90
24472;DHT22;12636;50.852;5.676;2023-12-20T09:39:59;7.20;99.90
24472;DHT22;12636;50.852;5.676;2023-12-20T09:42:29;7.00;99.90
24472;DHT22;12636;50.852;5.676;2023-12-20T09:44:59;6.80;99.90
24472;DHT22;12636;50.852;5.676;2023-12-20T09:47:28;6.50;99.90
24472;DHT22;12636;50.852;5.676;2023-12-20T09:49:57;6.30;99.90
24472;DHT22;12636;50.852;5.676;2023-12-20T09:52:24;6.20;99.90
24472;DHT22;12636;50.852;5.676;2023-12-20T09:54:51;6.20;99.90
24472;DHT22;12636;50.852;5.676;2023-12-20T09:57:20;6.20;99.90
24472;DHT22;12636;50.852;5.676;2023-12-20T09:59:47;7.20;99.90
24472;DHT22;12636;50.852;5.676;2023-12-20T10:02:14;7.70;99.90
24472;DHT22;12636;50.852;5.676;2023-12-20T10:04:41;7.60;99.90
24472;DHT22;12636;50.852;5.676;2023-12-20T10:07:13;7.20;99.90
24472;DHT22;12636;50.852;5.676;2023-12-20T10:09:40;7.30;99.90
24472;DHT22;12636;50.852;5.676;2023-12-20T10:12:08;7.40;99.90
24472;DHT22;12636;50.852;5.676;2023-12-20T10:14:35;7.70;99.90
24472;DHT22;12636;50.852;5.676;2023-12-20T10:17:02;8.10;99.90
24472;DHT22;12636;50.852;5.676;2023-12-20T10:19:29;8.60;99.90
24472;DHT22;12636;50.852;5.676;2023-12-20T10:21:56;8.60;99.90
24472;DHT22;12636;50.852;5.676;2023-12-20T10:24:25;8.50;99.90
24472;DHT22;12636;50.852;5.676;2023-12-20T10:27:01;8.40;78.40
24472;DHT22;12636;50.852;5.676;2023-12-20T10:29:31;8.80;1.00
24472;DHT22;12636;50.852;5.676;2023-12-20T10:31:58;8.80;1.00
24472;DHT22;12636;50.852;5.676;2023-12-20T10:34:24;9.00;1.00
24472;DHT22;12636;50.852;5.676;2023-12-20T10:36:51;8.20;1.00
24472;DHT22;12636;50.852;5.676;2023-12-20T10:39:18;7.70;1.00
24472;DHT22;12636;50.852;5.676;2023-12-20T10:41:47;7.40;1.00
24472;DHT22;12636;50.852;5.676;2023-12-20T10:44:14;7.30;27.40
24472;DHT22;12636;50.852;5.676;2023-12-20T10:46:41;7.10;63.20
24472;DHT22;12636;50.852;5.676;2023-12-20T10:49:15;7.20;96.50
24472;DHT22;12636;50.852;5.676;2023-12-20T10:51:42;7.10;94.10
24472;DHT22;12636;50.852;5.676;2023-12-20T10:54:11;7.00;99.90
24472;DHT22;12636;50.852;5.676;2023-12-20T10:56:38;7.00;99.90
24472;DHT22;12636;50.852;5.676;2023-12-20T10:59:06;7.00;99.90
24472;DHT22;12636;50.852;5.676;2023-12-20T11:01:35;7.10;99.90
24472;DHT22;12636;50.852;5.676;2023-12-20T11:04:03;7.20;99.90
24472;DHT22;12636;50.852;5.676;2023-12-20T11:06:35;7.20;99.90
24472;DHT22;12636;50.852;5.676;2023-12-20T11:09:08;7.20;99.90
24472;DHT22;12636;50.852;5.676;2023-12-20T11:11:41;7.20;99.90
24472;DHT22;12636;50.852;5.676;2023-12-20T11:14:14;7.20;99.90
24472;DHT22;12636;50.852;5.676;2023-12-20T11:16:42;7.20;99.90
24472;DHT22;12636;50.852;5.676;2023-12-20T11:19:08;7.30;99.90
24472;DHT22;12636;50.852;5.676;2023-12-20T11:21:39;7.30;99.50
24472;DHT22;12636;50.852;5.676;2023-12-20T11:24:06;7.30;99.70
24472;DHT22;12636;50.852;5.676;2023-12-20T11:26:33;7.40;97.80
24472;DHT22;12636;50.852;5.676;2023-12-20T11:31:43;7.30;99.90
24472;DHT22;12636;50.852;5.676;2023-12-20T11:34:12;7.40;99.90
24472;DHT22;12636;50.852;5.676;2023-12-20T11:36:39;7.40;99.90
24472;DHT22;12636;50.852;5.676;2023-12-20T11:39:06;7.40;99.90
24472;DHT22;12636;50.852;5.676;2023-12-20T11:41:36;7.40;99.90
24472;DHT22;12636;50.852;5.676;2023-12-20T11:44:04;7.50;96.50
24472;DHT22;12636;50.852;5.676;2023-12-20T11:46:31;7.50;92.50
24472;DHT22;12636;50.852;5.676;2023-12-20T11:49:00;7.50;93.10
24472;DHT22;12636;50.852;5.676;2023-12-20T11:51:27;7.50;83.40
24472;DHT22;12636;50.852;5.676;2023-12-20T11:53:54;7.50;79.00
24472;DHT22;12636;50.852;5.676;2023-12-20T11:56:21;7.50;93.20
24472;DHT22;12636;50.852;5.676;2023-12-20T11:58:48;7.50;85.00
24472;DHT22;12636;50.852;5.676;2023-12-20T12:01:16;7.50;86.50
24472;DHT22;12636;50.852;5.676;2023-12-20T12:03:43;7.50;81.60
24472;DHT22;12636;50.852;5.676;2023-12-20T12:06:11;7.50;85.50
24472;DHT22;12636;50.852;5.676;2023-12-20T12:08:39;7.50;84.70
24472;DHT22;12636;50.852;5.676;2023-12-20T12:11:06;7.60;82.70
24472;DHT22;12636;50.852;5.676;2023-12-20T12:13:33;7.70;82.00
24472;DHT22;12636;50.852;5.676;2023-12-20T12:16:00;7.70;35.30
24472;DHT22;12636;50.852;5.676;2023-12-20T12:18:27;7.60;60.60
24472;DHT22;12636;50.852;5.676;2023-12-20T12:20:59;7.60;60.10
24472;DHT22;12636;50.852;5.676;2023-12-20T12:23:28;7.60;64.20
24472;DHT22;12636;50.852;5.676;2023-12-20T12:25:55;7.60;72.20
24472;DHT22;12636;50.852;5.676;2023-12-20T12:28:25;7.60;81.90
24472;DHT22;12636;50.852;5.676;2023-12-20T12:30:56;7.60;85.30
24472;DHT22;12636;50.852;5.676;2023-12-20T12:33:24;7.40;99.90
24472;DHT22;12636;50.852;5.676;2023-12-20T12:35:51;7.40;99.90
24472;DHT22;12636;50.852;5.676;2023-12-20T12:38:19;7.30;99.90
24472;DHT22;12636;50.852;5.676;2023-12-20T12:40:48;7.30;99.90
24472;DHT22;12636;50.852;5.676;2023-12-20T12:43:15;7.20;99.90
24472;DHT22;12636;50.852;5.676;2023-12-20T12:45:42;7.20;99.90
24472;DHT22;12636;50.852;5.676;2023-12-20T12:48:09;7.20;99.90
24472;DHT22;12636;50.852;5.676;2023-12-20T12:50:36;7.10;99.90
24472;DHT22;12636;50.852;5.676;2023-12-20T12:53:03;7.10;99.90
24472;DHT22;12636;50.852;5.676;2023-12-20T12:55:30;7.00;99.90
24472;DHT22;12636;50.852;5.676;2023-12-20T12:57:58;7.00;99.90
24472;DHT22;12636;50.852;5.676;2023-12-20T13:00:25;7.00;99.90
24472;DHT22;12636;50.852;5.676;2023-12-20T13:02:52;6.90;99.90
24472;DHT22;12636;50.852;5.676;2023-12-20T13:05:19;7.00;99.90
24472;DHT22;12636;50.852;5.676;2023-12-20T13:07:46;7.00;99.90
24472;DHT22;12636;50.852;5.676;2023-12-20T13:10:13;7.10;99.90
24472;DHT22;12636;50.852;5.676;2023-12-20T13:12:42;7.10;99.90
24472;DHT22;12636;50.852;5.676;2023-12-20T13:15:10;7.10;99.90
24472;DHT22;12636;50.852;5.676;2023-12-20T13:17:37;7.10;99.90
24472;DHT22;12636;50.852;5.676;2023-12-20T13:20:05;7.10;99.90
24472;DHT22;12636;50.852;5.676;2023-12-20T13:22:33;7.20;99.90
24472;DHT22;12636;50.852;5.676;2023-12-20T13:24:59;7.20;99.90
24472;DHT22;12636;50.852;5.676;2023-12-20T13:27:28;7.20;99.90
24472;DHT22;12636;50.852;5.676;2023-12-20T13:29:55;7.20;99.90
24472;DHT22;12636;50.852;5.676;2023-12-20T13:32:23;7.20;99.90
24472;DHT22;12636;50.852;5.676;2023-12-20T13:34:50;7.20;99.90
24472;DHT22;12636;50.852;5.676;2023-12-20T13:37:17;7.30;99.90
24472;DHT22;12636;50.852;5.676;2023-12-20T13:39:44;7.30;99.90
24472;DHT22;12636;50.852;5.676;2023-12-20T13:42:11;7.30;99.90
24472;DHT22;12636;50.852;5.676;2023-12-20T13:44:38;7.40;99.90
24472;DHT22;12636;50.852;5.676;2023-12-20T13:47:05;7.50;99.90
24472;DHT22;12636;50.852;5.676;2023-12-20T13:49:33;7.50;99.90
24472;DHT22;12636;50.852;5.676;2023-12-20T13:52:00;7.50;99.90
24472;DHT22;12636;50.852;5.676;2023-12-20T13:54:29;7.50;99.90
24472;DHT22;12636;50.852;5.676;2023-12-20T13:56:56;7.60;99.90
24472;DHT22;12636;50.852;5.676;2023-12-20T13:59:23;7.60;99.90
24472;DHT22;12636;50.852;5.676;2023-12-20T14:01:51;7.60;99.90
24472;DHT22;12636;50.852;5.676;2023-12-20T14:04:18;7.70;99.90
24472;DHT22;12636;50.852;5.676;2023-12-20T14:06:47;7.70;99.90
24472;DHT22;12636;50.852;5.676;2023-12-20T14:09:14;7.70;99.90
24472;DHT22;12636;50.852;5.676;2023-12-20T14:11:41;7.70;99.90
24472;DHT22;12636;50.852;5.676;2023-12-20T14:14:08;7.70;99.90
24472;DHT22;12636;50.852;5.676;2023-12-20T14:16:35;7.60;99.90
24472;DHT22;12636;50.852;5.676;2023-12-20T14:19:02;7.60;99.90
24472;DHT22;12636;50.852;5.676;2023-12-20T14:21:29;7.60;99.90
24472;DHT22;12636;50.852;5.676;2023-12-20T14:23:57;7.60;99.90
24472;DHT22;12636;50.852;5.676;2023-12-20T14:26:24;7.60;99.90
24472;DHT22;12636;50.852;5.676;2023-12-20T14:28:53;7.60;99.90
24472;DHT22;12636;50.852;5.676;2023-12-20T14:31:20;7.60;99.90
24472;DHT22;12636;50.852;5.676;2023-12-20T14:33:49;7.60;99.90
24472;DHT22;12636;50.852;5.676;2023-12-20T14:36:18;7.60;99.90
24472;DHT22;12636;50.852;5.676;2023-12-20T14:38:46;7.60;99.90
24472;DHT22;12636;50.852;5.676;2023-12-20T14:41:17;7.50;99.90
24472;DHT22;12636;50.852;5.676;2023-12-20T14:43:44;7.50;99.90
24472;DHT22;12636;50.852;5.676;2023-12-20T14:46:12;7.50;99.90
24472;DHT22;12636;50.852;5.676;2023-12-20T14:48:39;7.50;99.90
24472;DHT22;12636;50.852;5.676;2023-12-20T14:51:06;7.50;99.90
24472;DHT22;12636;50.852;5.676;2023-12-20T14:53:33;7.50;99.90
24472;DHT22;12636;50.852;5.676;2023-12-20T14:56:02;7.60;99.90
24472;DHT22;12636;50.852;5.676;2023-12-20T14:58:31;7.60;99.90
24472;DHT22;12636;50.852;5.676;2023-12-20T15:00:58;7.60;99.90
24472;DHT22;12636;50.852;5.676;2023-12-20T15:03:25;7.60;99.90
24472;DHT22;12636;50.852;5.676;2023-12-20T15:05:52;7.60;99.90
24472;DHT22;12636;50.852;5.676;2023-12-20T15:08:19;7.60;99.90
24472;DHT22;12636;50.852;5.676;2023-12-20T15:10:47;7.60;99.90
24472;DHT22;12636;50.852;5.676;2023-12-20T15:13:13;7.60;99.90
24472;DHT22;12636;50.852;5.676;2023-12-20T15:15:42;7.60;99.90
24472;DHT22;12636;50.852;5.676;2023-12-20T15:18:09;7.60;99.90
24472;DHT22;12636;50.852;5.676;2023-12-20T15:20:36;7.70;99.90
24472;DHT22;12636;50.852;5.676;2023-12-20T15:23:03;7.70;99.90
24472;DHT22;12636;50.852;5.676;2023-12-20T15:25:32;7.70;99.90
24472;DHT22;12636;50.852;5.676;2023-12-20T15:27:58;7.70;99.90
24472;DHT22;12636;50.852;5.676;2023-12-20T15:30:28;7.70;99.90
24472;DHT22;12636;50.852;5.676;2023-12-20T15:32:56;7.70;99.90
24472;DHT22;12636;50.852;5.676;2023-12-20T15:35:23;7.70;99.90
24472;DHT22;12636;50.852;5.676;2023-12-20T15:37:50;7.80;99.90
24472;DHT22;12636;50.852;5.676;2023-12-20T15:40:17;7.80;99.90
24472;DHT22;12636;50.852;5.676;2023-12-20T15:42:44;7.80;99.90
24472;DHT22;12636;50.852;5.676;2023-12-20T15:45:11;7.80;99.90
24472;DHT22;12636;50.852;5.676;2023-12-20T15:47:38;7.80;99.90
24472;DHT22;12636;50.852;5.676;2023-12-20T15:50:07;7.80;99.90